sensor_id;sensor_type;location;lat;lon;timestamp;pressure;altitude;pressure_sealevel;temperature;humidity
15050;BME280;7622;42.724;23.250;2023-04-19T00:01:53;94267.97;;;10.19;100.00
15050;BME280;7622;42.724;23.250;2023-04-19T00:04:20;94278.56;;;10.08;100.00
15050;BME280;7622;42.724;23.250;2023-04-19T00:06:47;94269.59;;;10.20;100.00
15050;BME280;7622;42.724;23.250;2023-04-19T00:09:16;94265.28;;;10.11;100.00
15050;BME280;7622;42.724;23.250;2023-04-19T00:11:43;94272.41;;;10.09;100.00
15050;BME280;7622;42.724;23.250;2023-04-19T00:14:09;94274.78;;;10.20;100.00
15050;BME280;7622;42.724;23.250;2023-04-19T00:16:36;94261.97;;;10.18;100.00
15050;BME280;7622;42.724;23.250;2023-04-19T00:19:04;94259.91;;;10.48;100.00
15050;BME280;7622;42.724;23.250;2023-04-19T00:21:31;94261.88;;;10.28;100.00
15050;BME280;7622;42.724;23.250;2023-04-19T00:23:58;94256.53;;;10.30;100.00
15050;BME280;7622;42.724;23.250;2023-04-19T00:26:25;94261.78;;;10.38;100.00
15050;BME280;7622;42.724;23.250;2023-04-19T00:28:52;94261.97;;;10.44;100.00
15050;BME280;7622;42.724;23.250;2023-04-19T00:31:19;94258.94;;;10.23;100.00
15050;BME280;7622;42.724;23.250;2023-04-19T00:33:45;94263.88;;;10.34;100.00
15050;BME280;7622;42.724;23.250;2023-04-19T00:36:14;94244.84;;;10.08;100.00
15050;BME280;7622;42.724;23.250;2023-04-19T00:38:40;94255.22;;;10.08;100.00
15050;BME280;7622;42.724;23.250;2023-04-19T00:41:07;94263.13;;;10.24;100.00
15050;BME280;7622;42.724;23.250;2023-04-19T00:43:34;94250.16;;;10.06;100.00
15050;BME280;7622;42.724;23.250;2023-04-19T00:46:01;94250.16;;;10.06;100.00
15050;BME280;7622;42.724;23.250;2023-04-19T00:48:28;94226.19;;;9.86;100.00
15050;BME280;7622;42.724;23.250;2023-04-19T00:50:55;94252.84;;;9.97;100.00
15050;BME280;7622;42.724;23.250;2023-04-19T00:53:23;94257.41;;;10.03;100.00
15050;BME280;7622;42.724;23.250;2023-04-19T00:55:50;94254.47;;;9.98;100.00
15050;BME280;7622;42.724;23.250;2023-04-19T00:58:17;94241.91;;;10.11;100.00
15050;BME280;7622;42.724;23.250;2023-04-19T01:00:44;94250.09;;;9.98;100.00
15050;BME280;7622;42.724;23.250;2023-04-19T01:03:11;94251.53;;;9.93;100.00
15050;BME280;7622;42.724;23.250;2023-04-19T01:05:38;94240.88;;;10.04;100.00
15050;BME280;7622;42.724;23.250;2023-04-19T01:08:05;94249.00;;;10.01;100.00
15050;BME280;7622;42.724;23.250;2023-04-19T01:10:34;94235.06;;;10.02;100.00
15050;BME280;7622;42.724;23.250;2023-04-19T01:13:01;94230.00;;;9.82;100.00
15050;BME280;7622;42.724;23.250;2023-04-19T01:15:28;94236.41;;;9.70;100.00
15050;BME280;7622;42.724;23.250;2023-04-19T01:17:55;94242.41;;;9.71;100.00
15050;BME280;7622;42.724;23.250;2023-04-19T01:20:22;94241.66;;;9.78;100.00
15050;BME280;7622;42.724;23.250;2023-04-19T01:22:50;94237.59;;;9.58;100.00
15050;BME280;7622;42.724;23.250;2023-04-19T01:25:17;94247.19;;;9.48;100.00
15050;BME280;7622;42.724;23.250;2023-04-19T01:27:44;94239.97;;;9.52;100.00
15050;BME280;7622;42.724;23.250;2023-04-19T01:30:11;94244.50;;;9.67;100.00
15050;BME280;7622;42.724;23.250;2023-04-19T01:32:38;94239.38;;;9.58;100.00
15050;BME280;7622;42.724;23.250;2023-04-19T01:35:05;94238.47;;;9.49;100.00
15050;BME280;7622;42.724;23.250;2023-04-19T01:37:34;94232.38;;;9.40;100.00
15050;BME280;7622;42.724;23.250;2023-04-19T01:40:02;94237.13;;;9.63;100.00
15050;BME280;7622;42.724;23.250;2023-04-19T01:42:29;94236.84;;;9.48;100.00
15050;BME280;7622;42.724;23.250;2023-04-19T01:44:56;94198.91;;;9.12;100.00
15050;BME280;7622;42.724;23.250;2023-04-19T01:47:23;94238.31;;;9.33;100.00
15050;BME280;7622;42.724;23.250;2023-04-19T01:49:50;94238.84;;;9.36;100.00
15050;BME280;7622;42.724;23.250;2023-04-19T01:52:16;94235.88;;;9.49;100.00
15050;BME280;7622;42.724;23.250;2023-04-19T01:54:43;94230.31;;;9.44;100.00
15050;BME280;7622;42.724;23.250;2023-04-19T01:57:11;94231.50;;;9.32;100.00
15050;BME280;7622;42.724;23.250;2023-04-19T01:59:40;94237.34;;;9.34;100.00
15050;BME280;7622;42.724;23.250;2023-04-19T02:02:07;94238.38;;;9.41;100.00
15050;BME280;7622;42.724;23.250;2023-04-19T02:04:34;94236.09;;;9.38;100.00
15050;BME280;7622;42.724;23.250;2023-04-19T02:07:01;94235.34;;;9.28;100.00
15050;BME280;7622;42.724;23.250;2023-04-19T02:09:28;94232.56;;;9.39;100.00
15050;BME280;7622;42.724;23.250;2023-04-19T02:11:55;94241.06;;;9.31;100.00
15050;BME280;7622;42.724;23.250;2023-04-19T02:14:23;94236.59;;;9.41;100.00
15050;BME280;7622;42.724;23.250;2023-04-19T02:16:50;94243.00;;;9.47;100.00
15050;BME280;7622;42.724;23.250;2023-04-19T02:19:17;94237.44;;;9.42;100.00
15050;BME280;7622;42.724;23.250;2023-04-19T02:21:43;94229.78;;;9.40;100.00
15050;BME280;7622;42.724;23.250;2023-04-19T02:24:10;94232.66;;;9.20;100.00
15050;BME280;7622;42.724;23.250;2023-04-19T02:26:38;94233.88;;;9.25;100.00
15050;BME280;7622;42.724;23.250;2023-04-19T02:29:05;94236.38;;;9.35;100.00
15050;BME280;7622;42.724;23.250;2023-04-19T02:31:35;94224.59;;;9.23;100.00
15050;BME280;7622;42.724;23.250;2023-04-19T02:34:01;94228.38;;;9.11;100.00
15050;BME280;7622;42.724;23.250;2023-04-19T02:36:28;94219.78;;;9.10;100.00
15050;BME280;7622;42.724;23.250;2023-04-19T02:38:55;94227.91;;;9.15;100.00
15050;BME280;7622;42.724;23.250;2023-04-19T02:41:23;94218.00;;;9.11;100.00
15050;BME280;7622;42.724;23.250;2023-04-19T02:43:50;94225.09;;;9.08;100.00
15050;BME280;7622;42.724;23.250;2023-04-19T02:46:17;94218.22;;;9.17;100.00
15050;BME280;7622;42.724;23.250;2023-04-19T02:48:45;94223.09;;;9.02;100.00
15050;BME280;7622;42.724;23.250;2023-04-19T02:51:14;94232.19;;;9.06;100.00
15050;BME280;7622;42.724;23.250;2023-04-19T02:53:41;94221.78;;;9.16;100.00
15050;BME280;7622;42.724;23.250;2023-04-19T02:56:08;94221.28;;;9.13;100.00
15050;BME280;7622;42.724;23.250;2023-04-19T02:58:35;94218.59;;;9.04;100.00
15050;BME280;7622;42.724;23.250;2023-04-19T03:01:02;94218.00;;;9.11;100.00
15050;BME280;7622;42.724;23.250;2023-04-19T03:03:28;94220.50;;;9.02;100.00
15050;BME280;7622;42.724;23.250;2023-04-19T03:05:56;94218.03;;;9.01;100.00
15050;BME280;7622;42.724;23.250;2023-04-19T03:08:23;94217.53;;;8.97;100.00
15050;BME280;7622;42.724;23.250;2023-04-19T03:10:50;94218.03;;;9.01;100.00
15050;BME280;7622;42.724;23.250;2023-04-19T03:13:17;94225.09;;;9.08;100.00
15050;BME280;7622;42.724;23.250;2023-04-19T03:15:43;94213.00;;;8.99;100.00
15050;BME280;7622;42.724;23.250;2023-04-19T03:18:10;94221.53;;;8.92;100.00
15050;BME280;7622;42.724;23.250;2023-04-19T03:20:37;94222.81;;;9.05;100.00
15050;BME280;7622;42.724;23.250;2023-04-19T03:23:05;94219.63;;;9.12;100.00
15050;BME280;7622;42.724;23.250;2023-04-19T03:25:32;94218.41;;;9.06;100.00
15050;BME280;7622;42.724;23.250;2023-04-19T03:27:59;94220.50;;;9.02;100.00
15050;BME280;7622;42.724;23.250;2023-04-19T03:30:25;94223.75;;;9.04;100.00
15050;BME280;7622;42.724;23.250;2023-04-19T03:32:52;94153.19;;;8.48;100.00
15050;BME280;7622;42.724;23.250;2023-04-19T03:35:19;94224.91;;;8.92;100.00
15050;BME280;7622;42.724;23.250;2023-04-19T03:37:46;94225.94;;;8.99;100.00
15050;BME280;7622;42.724;23.250;2023-04-19T03:40:14;94220.50;;;9.02;100.00
15050;BME280;7622;42.724;23.250;2023-04-19T03:42:41;94224.53;;;8.87;100.00
15050;BME280;7622;42.724;23.250;2023-04-19T03:45:09;94222.16;;;8.94;100.00
15050;BME280;7622;42.724;23.250;2023-04-19T03:47:36;94223.31;;;9.09;100.00
15050;BME280;7622;42.724;23.250;2023-04-19T03:50:03;94228.88;;;9.14;100.00
15050;BME280;7622;42.724;23.250;2023-04-19T03:52:30;94222.41;;;9.00;100.00
15050;BME280;7622;42.724;23.250;2023-04-19T03:54:56;94216.75;;;8.87;100.00
15050;BME280;7622;42.724;23.250;2023-04-19T03:57:25;94221.19;;;8.77;100.00
15050;BME280;7622;42.724;23.250;2023-04-19T03:59:51;94223.66;;;8.69;100.00
15050;BME280;7622;42.724;23.250;2023-04-19T04:02:18;94214.63;;;8.73;100.00
15050;BME280;7622;42.724;23.250;2023-04-19T04:04:45;94220.28;;;8.59;100.00
15050;BME280;7622;42.724;23.250;2023-04-19T04:07:12;94220.88;;;8.80;100.00
15050;BME280;7622;42.724;23.250;2023-04-19T04:09:38;94216.28;;;8.74;100.00
15050;BME280;7622;42.724;23.250;2023-04-19T04:12:05;94225.13;;;8.72;100.00
15050;BME280;7622;42.724;23.250;2023-04-19T04:14:33;94229.66;;;8.69;100.00
15050;BME280;7622;42.724;23.250;2023-04-19T04:17:00;94236.22;;;8.64;100.00
15050;BME280;7622;42.724;23.250;2023-04-19T04:19:27;94226.63;;;8.74;100.00
15050;BME280;7622;42.724;23.250;2023-04-19T04:21:54;94234.94;;;8.78;100.00
15050;BME280;7622;42.724;23.250;2023-04-19T04:24:20;94235.31;;;8.83;100.00
15050;BME280;7622;42.724;23.250;2023-04-19T04:26:47;94228.22;;;8.85;100.00
15050;BME280;7622;42.724;23.250;2023-04-19T04:29:15;94231.53;;;9.04;100.00
15050;BME280;7622;42.724;23.250;2023-04-19T04:31:44;94240.91;;;8.78;100.00
15050;BME280;7622;42.724;23.250;2023-04-19T04:34:10;94239.78;;;8.90;100.00
15050;BME280;7622;42.724;23.250;2023-04-19T04:36:37;94241.47;;;8.82;100.00
15050;BME280;7622;42.724;23.250;2023-04-19T04:39:04;94240.44;;;8.92;100.00
15050;BME280;7622;42.724;23.250;2023-04-19T04:41:34;94242.16;;;9.01;100.00
15050;BME280;7622;42.724;23.250;2023-04-19T04:44:01;94233.66;;;8.91;100.00
15050;BME280;7622;42.724;23.250;2023-04-19T04:46:29;94241.41;;;8.91;100.00
15050;BME280;7622;42.724;23.250;2023-04-19T04:48:57;94238.84;;;8.91;100.00
15050;BME280;7622;42.724;23.250;2023-04-19T04:51:23;94232.53;;;8.94;100.00
15050;BME280;7622;42.724;23.250;2023-04-19T04:53:51;94241.22;;;9.02;100.00
15050;BME280;7622;42.724;23.250;2023-04-19T04:56:18;94230.31;;;8.99;100.00
15050;BME280;7622;42.724;23.250;2023-04-19T04:58:45;94238.16;;;8.89;100.00
15050;BME280;7622;42.724;23.250;2023-04-19T05:01:11;94247.00;;;8.87;100.00
15050;BME280;7622;42.724;23.250;2023-04-19T05:03:38;94235.25;;;8.92;100.00
15050;BME280;7622;42.724;23.250;2023-04-19T05:06:07;94251.94;;;8.80;100.00
15050;BME280;7622;42.724;23.250;2023-04-19T05:08:34;94242.63;;;8.97;100.00
15050;BME280;7622;42.724;23.250;2023-04-19T05:11:00;94254.88;;;8.95;100.00
15050;BME280;7622;42.724;23.250;2023-04-19T05:13:27;94247.78;;;8.97;100.00
15050;BME280;7622;42.724;23.250;2023-04-19T05:15:54;94244.91;;;9.00;100.00
15050;BME280;7622;42.724;23.250;2023-04-19T05:18:21;94251.00;;;9.08;100.00
15050;BME280;7622;42.724;23.250;2023-04-19T05:20:48;94244.53;;;8.95;100.00
15050;BME280;7622;42.724;23.250;2023-04-19T05:23:16;94257.38;;;8.87;100.00
15050;BME280;7622;42.724;23.250;2023-04-19T05:25:43;94243.94;;;9.01;100.00
15050;BME280;7622;42.724;23.250;2023-04-19T05:28:10;94248.78;;;9.14;100.00
15050;BME280;7622;42.724;23.250;2023-04-19T05:30:36;94257.78;;;9.37;100.00
15050;BME280;7622;42.724;23.250;2023-04-19T05:33:03;94251.69;;;9.28;100.00
15050;BME280;7622;42.724;23.250;2023-04-19T05:35:30;94256.63;;;9.49;100.00
15050;BME280;7622;42.724;23.250;2023-04-19T05:37:57;94254.69;;;9.51;100.00
15050;BME280;7622;42.724;23.250;2023-04-19T05:40:25;94250.66;;;9.66;100.00
15050;BME280;7622;42.724;23.250;2023-04-19T05:42:52;94246.97;;;9.41;100.00
15050;BME280;7622;42.724;23.250;2023-04-19T05:45:20;94251.75;;;9.64;100.00
15050;BME280;7622;42.724;23.250;2023-04-19T05:47:47;94259.38;;;9.65;100.00
15050;BME280;7622;42.724;23.250;2023-04-19T05:50:13;94255.09;;;9.74;100.00
15050;BME280;7622;42.724;23.250;2023-04-19T05:52:42;94257.09;;;9.80;100.00
15050;BME280;7622;42.724;23.250;2023-04-19T05:55:09;94254.72;;;9.86;100.00
15050;BME280;7622;42.724;23.250;2023-04-19T05:57:37;94253.97;;;9.94;100.00
15050;BME280;7622;42.724;23.250;2023-04-19T06:00:05;94247.44;;;10.08;100.00
15050;BME280;7622;42.724;23.250;2023-04-19T06:02:33;94255.94;;;10.18;100.00
15050;BME280;7622;42.724;23.250;2023-04-19T06:05:00;94246.59;;;10.25;100.00
15050;BME280;7622;42.724;23.250;2023-04-19T06:07:28;94256.53;;;10.12;100.00
15050;BME280;7622;42.724;23.250;2023-04-19T06:09:55;94231.25;;;10.14;100.00
15050;BME280;7622;42.724;23.250;2023-04-19T06:12:22;94262.50;;;10.22;100.00
15050;BME280;7622;42.724;23.250;2023-04-19T06:14:50;94257.31;;;10.22;100.00
15050;BME280;7622;42.724;23.250;2023-04-19T06:17:17;94257.41;;;10.38;100.00
15050;BME280;7622;42.724;23.250;2023-04-19T06:19:47;94247.22;;;10.45;100.00
15050;BME280;7622;42.724;23.250;2023-04-19T06:22:14;94264.13;;;10.23;100.00
15050;BME280;7622;42.724;23.250;2023-04-19T06:24:43;94258.25;;;10.21;100.00
15050;BME280;7622;42.724;23.250;2023-04-19T06:27:10;94258.44;;;10.10;100.00
15050;BME280;7622;42.724;23.250;2023-04-19T06:29:36;94261.28;;;10.34;100.00
15050;BME280;7622;42.724;23.250;2023-04-19T06:32:05;94265.66;;;10.34;100.00
15050;BME280;7622;42.724;23.250;2023-04-19T06:34:31;94248.00;;;10.37;100.00
15050;BME280;7622;42.724;23.250;2023-04-19T06:36:58;94269.97;;;10.25;100.00
15050;BME280;7622;42.724;23.250;2023-04-19T06:39:25;94261.56;;;10.31;100.00
15050;BME280;7622;42.724;23.250;2023-04-19T06:41:52;94260.16;;;10.37;100.00
15050;BME280;7622;42.724;23.250;2023-04-19T06:44:19;94254.84;;;10.46;100.00
15050;BME280;7622;42.724;23.250;2023-04-19T06:46:46;94266.66;;;10.66;100.00
15050;BME280;7622;42.724;23.250;2023-04-19T06:49:14;94253.94;;;10.55;100.00
15050;BME280;7622;42.724;23.250;2023-04-19T06:51:41;94270.31;;;10.82;100.00
15050;BME280;7622;42.724;23.250;2023-04-19T06:54:07;94272.56;;;10.77;100.00
15050;BME280;7622;42.724;23.250;2023-04-19T06:56:41;94264.13;;;10.75;100.00
15050;BME280;7622;42.724;23.250;2023-04-19T06:59:10;94260.84;;;10.73;100.00
15050;BME280;7622;42.724;23.250;2023-04-19T07:01:38;94276.69;;;10.87;100.00
15050;BME280;7622;42.724;23.250;2023-04-19T07:04:05;94278.56;;;11.03;100.00
15050;BME280;7622;42.724;23.250;2023-04-19T07:06:33;94274.66;;;11.07;100.00
15050;BME280;7622;42.724;23.250;2023-04-19T07:09:00;94278.94;;;11.16;100.00
15050;BME280;7622;42.724;23.250;2023-04-19T07:11:27;94276.91;;;11.02;100.00
15050;BME280;7622;42.724;23.250;2023-04-19T07:13:54;94280.34;;;11.02;100.00
15050;BME280;7622;42.724;23.250;2023-04-19T07:16:20;94276.53;;;10.89;100.00
15050;BME280;7622;42.724;23.250;2023-04-19T07:18:47;94277.44;;;11.14;100.00
15050;BME280;7622;42.724;23.250;2023-04-19T07:21:14;94279.66;;;11.00;100.00
15050;BME280;7622;42.724;23.250;2023-04-19T07:23:42;94278.94;;;11.16;100.00
15050;BME280;7622;42.724;23.250;2023-04-19T07:26:09;94278.84;;;11.00;100.00
15050;BME280;7622;42.724;23.250;2023-04-19T07:28:38;94283.75;;;11.03;100.00
15050;BME280;7622;42.724;23.250;2023-04-19T07:31:04;94283.91;;;11.01;100.00
15050;BME280;7622;42.724;23.250;2023-04-19T07:33:31;94251.56;;;10.96;100.00
15050;BME280;7622;42.724;23.250;2023-04-19T07:35:58;94275.06;;;11.28;100.00
15050;BME280;7622;42.724;23.250;2023-04-19T07:38:25;94278.72;;;11.43;100.00
15050;BME280;7622;42.724;23.250;2023-04-19T07:40:53;94272.81;;;11.25;100.00
15050;BME280;7622;42.724;23.250;2023-04-19T07:43:20;94280.50;;;11.43;100.00
15050;BME280;7622;42.724;23.250;2023-04-19T07:45:46;94269.63;;;11.56;100.00
15050;BME280;7622;42.724;23.250;2023-04-19T07:48:13;94281.47;;;11.34;100.00
15050;BME280;7622;42.724;23.250;2023-04-19T07:50:40;94282.44;;;11.49;100.00
15050;BME280;7622;42.724;23.250;2023-04-19T07:53:07;94273.84;;;11.49;100.00
15050;BME280;7622;42.724;23.250;2023-04-19T07:55:34;94279.59;;;11.68;100.00
15050;BME280;7622;42.724;23.250;2023-04-19T07:58:02;94270.00;;;11.61;100.00
15050;BME280;7622;42.724;23.250;2023-04-19T08:00:29;94278.44;;;11.71;100.00
15050;BME280;7622;42.724;23.250;2023-04-19T08:02:55;94282.72;;;11.80;100.00
15050;BME280;7622;42.724;23.250;2023-04-19T08:05:22;94285.50;;;11.78;100.00
15050;BME280;7622;42.724;23.250;2023-04-19T08:07:51;94282.78;;;11.96;100.00
15050;BME280;7622;42.724;23.250;2023-04-19T08:10:18;94269.41;;;11.75;100.00
15050;BME280;7622;42.724;23.250;2023-04-19T08:12:45;94285.34;;;12.04;100.00
15050;BME280;7622;42.724;23.250;2023-04-19T08:15:13;94285.81;;;11.83;100.00
15050;BME280;7622;42.724;23.250;2023-04-19T08:17:40;94275.09;;;11.78;100.00
15050;BME280;7622;42.724;23.250;2023-04-19T08:20:09;94275.75;;;11.89;100.00
15050;BME280;7622;42.724;23.250;2023-04-19T08:22:36;94275.91;;;11.79;100.00
15050;BME280;7622;42.724;23.250;2023-04-19T08:25:04;94285.53;;;11.95;100.00
15050;BME280;7622;42.724;23.250;2023-04-19T08:27:32;94282.44;;;12.32;100.00
15050;BME280;7622;42.724;23.250;2023-04-19T08:29:58;94272.69;;;12.09;100.00
15050;BME280;7622;42.724;23.250;2023-04-19T08:32:26;94276.59;;;12.13;100.00
15050;BME280;7622;42.724;23.250;2023-04-19T08:34:53;94276.91;;;12.02;100.00
15050;BME280;7622;42.724;23.250;2023-04-19T08:37:21;94270.41;;;12.14;100.00
15050;BME280;7622;42.724;23.250;2023-04-19T08:39:48;94270.41;;;12.31;100.00
15050;BME280;7622;42.724;23.250;2023-04-19T08:42:15;94277.22;;;12.32;100.00
15050;BME280;7622;42.724;23.250;2023-04-19T08:44:42;94263.72;;;12.44;100.00
15050;BME280;7622;42.724;23.250;2023-04-19T08:47:10;94266.16;;;12.54;100.00
15050;BME280;7622;42.724;23.250;2023-04-19T08:49:38;94268.44;;;12.65;100.00
15050;BME280;7622;42.724;23.250;2023-04-19T08:52:05;94259.25;;;12.85;100.00
15050;BME280;7622;42.724;23.250;2023-04-19T08:54:34;94254.66;;;12.95;100.00
15050;BME280;7622;42.724;23.250;2023-04-19T08:57:01;94248.47;;;12.88;100.00
15050;BME280;7622;42.724;23.250;2023-04-19T08:59:28;94257.59;;;13.48;100.00
15050;BME280;7622;42.724;23.250;2023-04-19T09:01:55;94257.69;;;13.85;100.00
15050;BME280;7622;42.724;23.250;2023-04-19T09:04:24;94248.50;;;14.12;100.00
15050;BME280;7622;42.724;23.250;2023-04-19T09:06:52;94251.53;;;14.24;100.00
15050;BME280;7622;42.724;23.250;2023-04-19T09:09:21;94240.28;;;14.23;100.00
15050;BME280;7622;42.724;23.250;2023-04-19T09:11:48;94257.09;;;14.95;100.00
15050;BME280;7622;42.724;23.250;2023-04-19T09:14:16;94244.75;;;15.04;100.00
15050;BME280;7622;42.724;23.250;2023-04-19T09:16:44;94241.13;;;14.76;100.00
15050;BME280;7622;42.724;23.250;2023-04-19T09:19:11;94243.00;;;15.41;100.00
15050;BME280;7622;42.724;23.250;2023-04-19T09:21:38;94244.84;;;15.97;98.47
15050;BME280;7622;42.724;23.250;2023-04-19T09:24:07;94245.88;;;16.18;94.12
15050;BME280;7622;42.724;23.250;2023-04-19T09:26:35;94242.66;;;16.43;93.79
15050;BME280;7622;42.724;23.250;2023-04-19T09:29:03;94231.81;;;16.25;90.99
15050;BME280;7622;42.724;23.250;2023-04-19T09:31:31;94242.22;;;16.19;93.31
15050;BME280;7622;42.724;23.250;2023-04-19T09:34:11;94233.59;;;16.67;83.79
15050;BME280;7622;42.724;23.250;2023-04-19T09:36:38;94233.69;;;17.49;78.32
15050;BME280;7622;42.724;23.250;2023-04-19T09:39:06;94239.44;;;17.31;70.97
15050;BME280;7622;42.724;23.250;2023-04-19T09:41:33;94233.88;;;17.07;74.52
15050;BME280;7622;42.724;23.250;2023-04-19T09:44:09;94238.03;;;16.67;75.83
15050;BME280;7622;42.724;23.250;2023-04-19T09:46:37;94228.41;;;17.49;69.75
15050;BME280;7622;42.724;23.250;2023-04-19T09:49:23;94231.03;;;17.97;65.69
15050;BME280;7622;42.724;23.250;2023-04-19T09:51:51;94233.59;;;17.36;69.17
15050;BME280;7622;42.724;23.250;2023-04-19T09:54:21;94229.97;;;16.68;78.70
15050;BME280;7622;42.724;23.250;2023-04-19T09:56:49;94229.53;;;16.15;85.24
15050;BME280;7622;42.724;23.250;2023-04-19T09:59:17;94232.19;;;16.01;87.99
15050;BME280;7622;42.724;23.250;2023-04-19T10:01:45;94206.31;;;15.91;89.15
15050;BME280;7622;42.724;23.250;2023-04-19T10:04:14;94220.72;;;16.02;86.69
15050;BME280;7622;42.724;23.250;2023-04-19T10:06:47;94217.28;;;16.23;81.33
15050;BME280;7622;42.724;23.250;2023-04-19T10:09:15;94215.59;;;16.36;83.08
15050;BME280;7622;42.724;23.250;2023-04-19T10:11:47;94210.78;;;16.96;75.34
15050;BME280;7622;42.724;23.250;2023-04-19T10:14:16;94210.69;;;17.17;72.62
15050;BME280;7622;42.724;23.250;2023-04-19T10:16:42;94210.81;;;17.02;70.22
15050;BME280;7622;42.724;23.250;2023-04-19T10:19:11;94217.28;;;17.41;68.27
15050;BME280;7622;42.724;23.250;2023-04-19T10:21:40;94203.22;;;17.14;71.08
15050;BME280;7622;42.724;23.250;2023-04-19T10:24:07;94201.44;;;17.21;69.20
15050;BME280;7622;42.724;23.250;2023-04-19T10:27:06;94216.09;;;16.74;72.55
15050;BME280;7622;42.724;23.250;2023-04-19T10:30:02;94195.56;;;17.66;65.23
15050;BME280;7622;42.724;23.250;2023-04-19T10:32:38;94201.88;;;17.85;63.95
15050;BME280;7622;42.724;23.250;2023-04-19T10:35:08;94209.53;;;17.74;63.29
15050;BME280;7622;42.724;23.250;2023-04-19T10:37:39;94196.69;;;18.64;60.53
15050;BME280;7622;42.724;23.250;2023-04-19T10:40:08;94194.66;;;18.86;57.93
15050;BME280;7622;42.724;23.250;2023-04-19T10:43:16;94192.06;;;19.31;57.79
15050;BME280;7622;42.724;23.250;2023-04-19T10:45:45;94185.22;;;19.23;56.86
15050;BME280;7622;42.724;23.250;2023-04-19T10:48:31;94185.03;;;19.18;57.03
15050;BME280;7622;42.724;23.250;2023-04-19T10:51:00;94184.03;;;19.12;56.61
15050;BME280;7622;42.724;23.250;2023-04-19T10:53:48;94161.66;;;19.48;55.49
15050;BME280;7622;42.724;23.250;2023-04-19T10:56:15;94184.69;;;19.59;55.36
15050;BME280;7622;42.724;23.250;2023-04-19T10:59:13;94180.41;;;20.02;55.24
15050;BME280;7622;42.724;23.250;2023-04-19T11:01:48;94179.16;;;19.29;55.77
15050;BME280;7622;42.724;23.250;2023-04-19T11:04:16;94181.28;;;18.87;56.26
15050;BME280;7622;42.724;23.250;2023-04-19T11:06:58;94178.75;;;19.25;55.96
15050;BME280;7622;42.724;23.250;2023-04-19T11:09:28;94171.47;;;20.03;54.50
15050;BME280;7622;42.724;23.250;2023-04-19T11:11:57;94176.75;;;20.03;54.48
15050;BME280;7622;42.724;23.250;2023-04-19T11:14:27;94174.09;;;19.72;54.44
15050;BME280;7622;42.724;23.250;2023-04-19T11:16:55;94173.56;;;20.20;53.66
15050;BME280;7622;42.724;23.250;2023-04-19T11:19:22;94165.19;;;20.29;53.99
15050;BME280;7622;42.724;23.250;2023-04-19T11:21:48;94131.72;;;20.30;53.04
15050;BME280;7622;42.724;23.250;2023-04-19T11:24:16;94157.78;;;19.88;53.26
15050;BME280;7622;42.724;23.250;2023-04-19T11:26:45;94164.41;;;19.66;53.04
15050;BME280;7622;42.724;23.250;2023-04-19T11:29:13;94158.81;;;20.19;53.74
15050;BME280;7622;42.724;23.250;2023-04-19T11:31:42;94157.78;;;19.88;52.96
15050;BME280;7622;42.724;23.250;2023-04-19T11:34:10;94155.22;;;20.06;52.93
15050;BME280;7622;42.724;23.250;2023-04-19T11:36:46;94152.38;;;18.61;55.30
15050;BME280;7622;42.724;23.250;2023-04-19T11:39:13;94150.69;;;19.44;54.42
15050;BME280;7622;42.724;23.250;2023-04-19T11:41:39;94147.34;;;19.24;53.13
15050;BME280;7622;42.724;23.250;2023-04-19T11:44:12;94151.06;;;19.03;53.80
15050;BME280;7622;42.724;23.250;2023-04-19T11:46:41;94152.13;;;19.47;52.53
15050;BME280;7622;42.724;23.250;2023-04-19T11:49:09;94153.91;;;19.08;53.57
15050;BME280;7622;42.724;23.250;2023-04-19T11:51:42;94138.75;;;18.91;53.65
15050;BME280;7622;42.724;23.250;2023-04-19T11:54:12;94153.72;;;18.90;53.46
15050;BME280;7622;42.724;23.250;2023-04-19T11:57:03;94140.38;;;18.85;53.22
15050;BME280;7622;42.724;23.250;2023-04-19T11:59:31;94144.88;;;18.52;52.37
15050;BME280;7622;42.724;23.250;2023-04-19T12:02:07;94143.47;;;18.56;53.16
15050;BME280;7622;42.724;23.250;2023-04-19T12:04:34;94142.88;;;18.21;55.06
15050;BME280;7622;42.724;23.250;2023-04-19T12:07:01;94137.38;;;18.48;54.82
15050;BME280;7622;42.724;23.250;2023-04-19T12:09:28;94133.94;;;18.55;54.71
15050;BME280;7622;42.724;23.250;2023-04-19T12:11:56;94137.41;;;18.35;54.71
15050;BME280;7622;42.724;23.250;2023-04-19T12:14:23;94134.97;;;17.88;56.87
15050;BME280;7622;42.724;23.250;2023-04-19T12:17:11;94131.97;;;18.04;57.54
15050;BME280;7622;42.724;23.250;2023-04-19T12:19:44;94131.97;;;18.04;58.67
15050;BME280;7622;42.724;23.250;2023-04-19T12:22:13;94129.09;;;17.86;58.90
15050;BME280;7622;42.724;23.250;2023-04-19T12:24:40;94124.09;;;17.30;62.72
15050;BME280;7622;42.724;23.250;2023-04-19T12:27:08;94127.19;;;17.40;63.23
15050;BME280;7622;42.724;23.250;2023-04-19T12:29:35;94127.50;;;17.17;63.89
15050;BME280;7622;42.724;23.250;2023-04-19T12:32:03;94128.00;;;16.86;63.77
15050;BME280;7622;42.724;23.250;2023-04-19T12:34:31;94130.56;;;16.73;66.37
15050;BME280;7622;42.724;23.250;2023-04-19T12:36:58;94114.00;;;16.73;67.58
15050;BME280;7622;42.724;23.250;2023-04-19T12:39:25;94115.78;;;16.38;67.70
15050;BME280;7622;42.724;23.250;2023-04-19T12:41:53;94113.41;;;16.77;67.72
15050;BME280;7622;42.724;23.250;2023-04-19T12:44:20;94126.28;;;17.13;64.29
15050;BME280;7622;42.724;23.250;2023-04-19T12:46:47;94121.97;;;16.92;65.65
15050;BME280;7622;42.724;23.250;2023-04-19T12:49:16;94117.03;;;16.76;64.84
15050;BME280;7622;42.724;23.250;2023-04-19T12:51:44;94137.94;;;16.63;67.69
15050;BME280;7622;42.724;23.250;2023-04-19T12:54:12;94134.56;;;16.69;64.24
15050;BME280;7622;42.724;23.250;2023-04-19T12:56:38;94152.66;;;16.08;67.93
15050;BME280;7622;42.724;23.250;2023-04-19T12:59:05;94134.44;;;15.36;74.27
15050;BME280;7622;42.724;23.250;2023-04-19T13:01:32;94137.63;;;14.67;89.42
15050;BME280;7622;42.724;23.250;2023-04-19T13:03:59;94143.66;;;14.38;99.19